createdAt,value
2018-07-10T00:00:47.484Z,54.14
2018-07-10T00:03:41.860Z,54.37
2018-07-10T00:06:22.856Z,54.21
2018-07-10T00:08:56.152Z,54.33
2018-07-10T00:11:25.768Z,54.15
2018-07-10T00:13:54.390Z,54.85
2018-07-10T00:16:23.075Z,55.10
2018-07-10T00:18:51.683Z,54.97
2018-07-10T00:21:22.614Z,55.01
2018-07-10T00:23:51.286Z,54.70
2018-07-10T00:26:20.333Z,54.97
2018-07-10T00:28:52.175Z,55.00
2018-07-10T00:31:21.494Z,53.33
2018-07-10T00:33:50.498Z,54.58
2018-07-10T00:36:19.762Z,54.89
2018-07-10T00:38:58.144Z,53.53
2018-07-10T00:41:29.699Z,54.84
2018-07-10T00:44:02.149Z,53.30
2018-07-10T00:46:30.908Z,52.46
2018-07-10T00:48:59.473Z,53.91
2018-07-10T00:51:29.474Z,53.84
2018-07-10T00:53:58.636Z,51.53
2018-07-10T00:56:27.485Z,52.92
2018-07-10T00:58:56.573Z,53.31
2018-07-10T01:01:25.589Z,53.39
2018-07-10T01:03:54.284Z,53.51
2018-07-10T01:06:22.918Z,53.45
2018-07-10T01:08:55.590Z,53.69
2018-07-10T01:11:24.310Z,53.68
2018-07-10T01:13:53.901Z,53.76
2018-07-10T01:16:25.701Z,53.83
2018-07-10T01:18:54.770Z,53.74
2018-07-10T01:21:23.488Z,54.16
2018-07-10T01:23:52.921Z,53.39
2018-07-10T01:26:21.565Z,55.26
2018-07-10T01:28:51.012Z,55.59
2018-07-10T01:35:20.971Z,54.48
2018-07-10T01:37:51.015Z,56.02
2018-07-10T01:40:22.823Z,56.23
2018-07-10T01:49:30.293Z,57.11
2018-07-10T01:51:58.911Z,56.04
2018-07-10T01:54:27.598Z,57.36
2018-07-10T01:56:56.234Z,55.94
2018-07-10T01:59:24.918Z,55.05
2018-07-10T02:01:53.647Z,56.23
2018-07-10T02:04:22.488Z,56.24
2018-07-10T02:06:52.171Z,56.29
2018-07-10T02:09:20.859Z,56.22
2018-07-10T02:11:49.490Z,56.23
2018-07-10T02:14:18.454Z,56.21
2018-07-10T02:16:47.262Z,54.61
2018-07-10T02:19:16.480Z,56.50
2018-07-10T02:21:45.543Z,57.00
2018-07-10T02:24:14.407Z,57.45
2018-07-10T02:26:43.294Z,57.30
2018-07-10T02:29:12.100Z,55.40
2018-07-10T02:31:41.030Z,56.50
2018-07-10T02:34:09.579Z,54.92
2018-07-10T02:36:38.384Z,56.71
2018-07-10T02:39:07.007Z,57.50
2018-07-10T02:41:36.100Z,57.63
2018-07-10T02:44:04.904Z,57.57
2018-07-10T02:46:33.950Z,58.10
2018-07-10T02:49:02.913Z,57.05
2018-07-10T02:51:31.993Z,58.56
2018-07-10T02:54:01.132Z,58.02
2018-07-10T02:56:30.066Z,59.61
2018-07-10T02:58:59.323Z,60.25
2018-07-10T03:01:28.810Z,61.07
2018-07-10T03:03:57.544Z,60.61
2018-07-10T03:06:26.283Z,62.24
2018-07-10T03:08:54.896Z,62.89
2018-07-10T03:11:23.675Z,63.51
2018-07-10T03:13:52.300Z,63.73
2018-07-10T03:16:21.334Z,65.30
2018-07-10T03:18:50.434Z,66.10
2018-07-10T03:21:19.568Z,66.67
2018-07-10T03:23:48.184Z,66.20
2018-07-10T03:26:16.936Z,67.63
2018-07-10T03:28:46.012Z,67.92
2018-07-10T03:31:14.700Z,67.69
2018-07-10T03:33:43.553Z,68.26
2018-07-10T03:36:12.743Z,69.12
2018-07-10T03:38:41.759Z,69.10
2018-07-10T03:41:10.598Z,68.66
2018-07-10T03:43:39.434Z,69.64
2018-07-10T03:46:08.549Z,70.42
2018-07-10T03:48:37.130Z,70.37
2018-07-10T03:51:05.840Z,70.34
2018-07-10T03:53:34.557Z,70.64
2018-07-10T03:56:03.949Z,69.68
2018-07-10T03:58:33.080Z,70.76
2018-07-10T04:01:01.882Z,70.79
2018-07-10T04:03:31.720Z,69.65
2018-07-10T04:06:00.416Z,69.24
2018-07-10T04:08:29.287Z,70.53
2018-07-10T04:10:59.327Z,71.21
2018-07-10T04:13:27.988Z,71.42
2018-07-10T04:15:57.412Z,70.04
2018-07-10T04:18:28.659Z,71.13
2018-07-10T04:20:57.648Z,71.58
2018-07-10T04:23:26.303Z,71.78
2018-07-10T04:25:54.997Z,70.42
2018-07-10T04:28:23.894Z,69.77
2018-07-10T04:30:52.521Z,69.25
2018-07-10T04:33:21.238Z,70.59
2018-07-10T04:35:50.701Z,71.14
2018-07-10T04:38:19.361Z,71.39
2018-07-10T04:40:49.285Z,69.16
2018-07-10T04:43:18.057Z,69.98
2018-07-10T04:45:46.691Z,70.85
2018-07-10T04:48:15.501Z,70.54
2018-07-10T04:50:44.284Z,70.66
2018-07-10T04:53:13.090Z,70.94
2018-07-10T04:55:41.769Z,71.08
2018-07-10T04:58:10.413Z,71.25
2018-07-10T05:00:39.330Z,69.07
2018-07-10T05:03:08.372Z,68.45
2018-07-10T05:05:37.042Z,70.03
2018-07-10T05:08:05.708Z,70.47
2018-07-10T05:10:34.507Z,70.74
2018-07-10T05:13:03.578Z,68.53
2018-07-10T05:15:32.238Z,70.27
2018-07-10T05:18:00.855Z,70.83
2018-07-10T05:20:29.510Z,71.24
2018-07-10T05:22:58.287Z,71.55
2018-07-10T05:25:27.910Z,71.75
2018-07-10T05:27:56.537Z,71.67
2018-07-10T05:30:32.191Z,69.62
2018-07-10T05:33:01.532Z,70.94
2018-07-10T05:35:31.195Z,71.52
2018-07-10T05:38:01.468Z,71.66
2018-07-10T05:40:30.188Z,71.69
2018-07-10T05:42:58.811Z,71.73
2018-07-10T05:45:27.639Z,71.54
2018-07-10T05:47:56.263Z,71.70
2018-07-10T05:50:25.006Z,71.84
2018-07-10T05:52:53.573Z,71.51
2018-07-10T05:55:22.376Z,71.75
2018-07-10T05:57:51.249Z,71.92
2018-07-10T06:00:20.116Z,71.56
2018-07-10T06:02:48.701Z,68.94
2018-07-10T06:05:17.382Z,70.88
2018-07-10T06:07:46.014Z,71.39
2018-07-10T06:10:15.002Z,68.98
2018-07-10T06:12:45.166Z,70.39
2018-07-10T06:15:13.774Z,71.16
2018-07-10T06:17:43.990Z,71.74
2018-07-10T06:20:12.634Z,71.81
2018-07-10T06:22:41.279Z,68.93
2018-07-10T06:25:10.573Z,70.06
2018-07-10T06:27:39.252Z,70.50
2018-07-10T06:30:07.884Z,70.84
2018-07-10T06:32:36.513Z,70.41
2018-07-10T06:35:05.178Z,70.28
2018-07-10T06:37:33.806Z,66.72
2018-07-10T06:40:02.579Z,68.43
2018-07-10T06:42:31.264Z,68.82
2018-07-10T06:44:59.901Z,68.80
2018-07-10T06:47:28.529Z,68.98
2018-07-10T06:49:57.669Z,65.37
2018-07-10T06:52:26.458Z,67.05
2018-07-10T06:54:57.582Z,67.42
2018-07-10T06:57:26.304Z,67.56
2018-07-10T06:59:54.975Z,67.56
2018-07-10T07:02:23.533Z,63.47
2018-07-10T07:04:52.187Z,65.79
2018-07-10T07:07:20.834Z,66.40
2018-07-10T07:09:49.460Z,66.43
2018-07-10T07:12:18.135Z,65.98
2018-07-10T07:14:46.773Z,65.58
2018-07-10T07:17:15.468Z,64.84
2018-07-10T07:19:44.087Z,64.09
2018-07-10T07:22:12.768Z,63.88
2018-07-10T07:24:41.766Z,63.37
2018-07-10T07:27:10.412Z,62.88
2018-07-10T07:29:40.202Z,62.20
2018-07-10T07:32:09.898Z,62.13
2018-07-10T07:34:38.764Z,61.43
2018-07-10T07:37:08.094Z,60.90
2018-07-10T07:39:36.710Z,60.74
2018-07-10T07:42:06.550Z,60.22
2018-07-10T07:44:35.395Z,60.27
2018-07-10T07:47:04.186Z,59.96
2018-07-10T07:49:49.634Z,59.53
2018-07-10T07:52:18.765Z,59.59
2018-07-10T07:54:47.696Z,58.92
2018-07-10T07:57:16.748Z,58.84
2018-07-10T07:59:45.635Z,52.49
2018-07-10T08:02:14.762Z,55.06
2018-07-10T08:04:43.894Z,55.42
2018-07-10T08:07:12.540Z,55.28
2018-07-10T08:09:41.175Z,55.26
2018-07-10T08:12:10.137Z,54.70
2018-07-10T08:14:38.769Z,54.31
2018-07-10T08:17:07.426Z,47.56
2018-07-10T08:19:36.124Z,51.34
2018-07-10T08:22:05.145Z,51.96
2018-07-10T08:24:33.813Z,52.74
2018-07-10T08:27:02.472Z,52.50
2018-07-10T08:29:31.846Z,51.88
2018-07-10T08:32:00.525Z,52.06
2018-07-10T08:34:29.167Z,51.95
2018-07-10T08:36:57.879Z,51.46
2018-07-10T08:39:27.069Z,51.84
2018-07-10T08:41:57.189Z,51.26
2018-07-10T08:44:26.137Z,51.60
2018-07-10T08:46:55.133Z,51.87
2018-07-10T08:49:24.101Z,46.17
2018-07-10T08:51:53.037Z,49.34
2018-07-10T08:54:21.659Z,49.63
2018-07-10T08:56:51.649Z,49.98
2018-07-10T08:59:21.881Z,50.47
2018-07-10T09:01:51.385Z,50.29
2018-07-10T09:04:20.494Z,50.29
2018-07-10T09:06:49.148Z,50.32
2018-07-10T09:09:18.130Z,50.41
2018-07-10T09:11:47.277Z,50.50
2018-07-10T09:14:17.201Z,50.32
2018-07-10T09:16:46.221Z,45.41
2018-07-10T09:19:14.846Z,48.65
2018-07-10T09:21:43.455Z,49.84
2018-07-10T09:24:12.104Z,50.28
2018-07-10T09:26:43.243Z,50.60
2018-07-10T09:29:11.905Z,50.91
2018-07-10T09:31:40.538Z,46.60
2018-07-10T09:34:09.202Z,49.67
2018-07-10T09:36:37.833Z,50.56
2018-07-10T09:39:06.494Z,50.88
2018-07-10T09:41:35.122Z,49.64
2018-07-10T09:44:03.899Z,49.40
2018-07-10T09:46:32.406Z,49.73
2018-07-10T09:49:01.059Z,49.52
2018-07-10T09:51:29.685Z,44.33
2018-07-10T09:53:58.343Z,47.81
2018-07-10T09:56:26.977Z,47.79
2018-07-10T09:58:55.654Z,47.12
2018-07-10T10:01:24.449Z,42.13
2018-07-10T10:03:53.107Z,45.06
2018-07-10T10:06:21.719Z,45.93
2018-07-10T10:08:50.364Z,43.12
2018-07-10T10:11:19.315Z,45.27
2018-07-10T10:13:48.039Z,45.95
2018-07-10T10:16:17.920Z,45.79
2018-07-10T10:18:46.732Z,45.74
2018-07-10T10:21:16.776Z,45.63
2018-07-10T10:23:45.587Z,45.07
2018-07-10T10:26:14.200Z,44.87
2018-07-10T10:28:43.031Z,39.72
2018-07-10T10:31:11.656Z,42.34
2018-07-10T10:33:40.299Z,42.05
2018-07-10T10:36:08.932Z,41.99
2018-07-10T10:38:39.306Z,41.22
2018-07-10T10:41:07.961Z,41.21
2018-07-10T10:43:36.636Z,36.11
2018-07-10T10:46:05.288Z,39.40
2018-07-10T10:48:34.230Z,40.26
2018-07-10T10:51:04.122Z,37.14
2018-07-10T10:53:32.971Z,36.74
2018-07-10T10:56:01.824Z,40.14
2018-07-10T10:58:32.707Z,37.34
2018-07-10T11:01:01.446Z,39.89
2018-07-10T11:03:30.321Z,40.91
2018-07-10T11:05:58.994Z,40.87
2018-07-10T11:08:27.661Z,41.09
2018-07-10T11:10:56.819Z,41.17
2018-07-10T11:13:25.561Z,41.38
2018-07-10T11:15:54.591Z,41.16
2018-07-10T11:18:23.112Z,36.51
2018-07-10T11:20:51.749Z,35.90
2018-07-10T11:23:20.364Z,38.34
2018-07-10T11:25:49.305Z,39.18
2018-07-10T11:28:17.943Z,38.92
2018-07-10T11:30:46.593Z,39.00
2018-07-10T11:33:15.238Z,39.08
2018-07-10T11:35:43.925Z,39.28
2018-07-10T11:38:12.566Z,38.54
2018-07-10T11:40:41.222Z,38.97
2018-07-10T11:43:09.876Z,39.63
2018-07-10T11:45:38.545Z,39.56
2018-07-10T11:48:07.143Z,39.26
2018-07-10T11:50:35.799Z,38.09
2018-07-10T11:53:04.440Z,38.13
2018-07-10T11:55:33.199Z,33.85
2018-07-10T11:58:01.829Z,36.92
2018-07-10T12:00:30.549Z,37.18
2018-07-10T12:02:59.188Z,36.69
2018-07-10T12:05:27.914Z,36.84
2018-07-10T12:07:56.548Z,36.55
2018-07-10T12:10:25.232Z,36.02
2018-07-10T12:12:53.860Z,36.30
2018-07-10T12:15:22.504Z,36.48
2018-07-10T12:17:51.154Z,31.32
2018-07-10T12:20:19.796Z,34.72
2018-07-10T12:25:36.023Z,35.59
2018-07-10T12:28:04.756Z,36.10
2018-07-10T12:30:33.308Z,35.67
2018-07-10T12:33:01.937Z,35.17
2018-07-10T12:35:30.639Z,35.18
2018-07-10T12:37:59.361Z,34.66
2018-07-10T12:40:28.084Z,34.18
2018-07-10T12:42:56.757Z,29.46
2018-07-10T12:45:25.430Z,28.52
2018-07-10T12:47:54.048Z,28.02
2018-07-10T12:50:22.702Z,31.05
2018-07-10T12:52:51.336Z,27.88
2018-07-10T12:55:20.025Z,30.80
2018-07-10T12:57:54.400Z,27.49
2018-07-10T13:00:24.858Z,30.60
2018-07-10T13:02:53.545Z,32.00
2018-07-10T13:05:25.456Z,32.23
2018-07-10T13:10:55.405Z,32.87
2018-07-10T13:13:30.026Z,33.66
2018-07-10T13:15:56.086Z,34.40
2018-07-10T13:18:24.759Z,35.10
2018-07-10T13:20:53.385Z,36.05
2018-07-10T13:23:22.052Z,36.85
2018-07-10T13:25:51.871Z,37.29
2018-07-10T13:28:23.767Z,37.92
2018-07-10T13:30:54.138Z,35.55
2018-07-10T13:33:23.191Z,37.94
2018-07-10T13:35:52.390Z,39.04
2018-07-10T13:38:21.083Z,39.76
2018-07-10T13:40:49.831Z,40.07
2018-07-10T13:43:19.501Z,40.33
2018-07-10T13:45:48.331Z,40.58
2018-07-10T13:48:17.383Z,40.48
2018-07-10T13:50:47.905Z,40.55
2018-07-10T13:53:16.864Z,40.36
2018-07-10T13:55:50.311Z,37.08
2018-07-10T13:58:19.135Z,39.40
2018-07-10T14:00:47.804Z,36.37
2018-07-10T14:03:16.442Z,36.06
2018-07-10T14:05:45.100Z,38.59
2018-07-10T14:08:13.715Z,38.99
2018-07-10T14:10:42.771Z,39.13
2018-07-10T14:13:12.765Z,39.04
2018-07-10T14:15:41.417Z,39.29
2018-07-10T14:18:13.390Z,35.42
2018-07-10T14:20:43.642Z,38.29
2018-07-10T14:23:13.477Z,38.29
2018-07-10T14:25:42.445Z,38.43
2018-07-10T14:28:11.609Z,38.35
2018-07-10T14:30:41.647Z,34.52
2018-07-10T14:33:10.320Z,36.83
2018-07-10T14:35:38.948Z,37.50
2018-07-10T14:38:07.615Z,33.96
2018-07-10T14:40:36.263Z,33.04
2018-07-10T14:43:05.242Z,32.49
2018-07-10T14:45:34.291Z,35.12
2018-07-10T14:48:02.959Z,35.40
2018-07-10T14:50:31.689Z,32.45
2018-07-10T14:53:08.849Z,35.25
2018-07-10T14:55:38.871Z,35.70
2018-07-10T14:58:07.633Z,36.52
2018-07-10T15:00:36.288Z,36.42
2018-07-10T15:03:04.944Z,36.56
2018-07-10T15:05:34.684Z,36.16
2018-07-10T15:08:04.790Z,36.29
2018-07-10T15:10:33.514Z,36.04
2018-07-10T15:13:03.706Z,35.46
2018-07-10T15:15:39.147Z,33.77
2018-07-10T15:18:07.730Z,31.95
2018-07-10T15:20:36.881Z,30.30
2018-07-10T15:23:07.478Z,30.12
2018-07-10T15:25:36.088Z,26.11
2018-07-10T15:28:04.739Z,27.82
2018-07-10T15:30:33.370Z,27.58
2018-07-10T15:33:02.023Z,27.13
2018-07-10T15:35:30.675Z,27.28
2018-07-10T15:37:59.337Z,27.21
2018-07-10T15:40:27.983Z,26.78
2018-07-10T15:42:56.648Z,26.93
2018-07-10T15:45:25.288Z,26.77
2018-07-10T15:47:55.305Z,26.32
2018-07-10T15:50:24.696Z,26.70
2018-07-10T15:52:53.385Z,26.78
2018-07-10T15:55:21.991Z,27.25
2018-07-10T15:57:51.037Z,24.20
2018-07-10T16:00:19.900Z,27.36
2018-07-10T16:02:49.201Z,28.25
2018-07-10T16:05:25.774Z,26.19
2018-07-10T16:07:48.710Z,29.43
2018-07-10T16:10:30.375Z,30.64
2018-07-10T16:13:06.077Z,31.19
2018-07-10T16:15:33.281Z,31.97
2018-07-10T16:18:09.880Z,32.71
2018-07-10T16:20:46.566Z,32.87
2018-07-10T16:23:23.750Z,30.97
2018-07-10T16:26:00.667Z,33.29
2018-07-10T16:28:32.665Z,34.30
2018-07-10T16:31:02.017Z,34.82
2018-07-10T16:33:39.811Z,34.95
2018-07-10T16:36:08.042Z,35.32
2018-07-10T16:38:37.519Z,35.57
2018-07-10T16:41:06.096Z,35.71
2018-07-10T16:43:37.533Z,36.03
2018-07-10T16:46:14.388Z,36.30
2018-07-10T16:48:44.215Z,37.13
2018-07-10T16:51:20.573Z,37.64
2018-07-10T16:53:49.686Z,37.95
2018-07-10T16:56:18.702Z,38.11
2018-07-10T16:58:47.570Z,38.62
2018-07-10T17:01:16.164Z,38.79
2018-07-10T17:03:44.821Z,39.06
2018-07-10T17:06:13.594Z,39.36
2018-07-10T17:08:42.360Z,39.77
2018-07-10T17:11:11.151Z,39.90
2018-07-10T17:13:42.890Z,39.99
2018-07-10T17:16:11.593Z,40.18
2018-07-10T17:18:43.217Z,38.60
2018-07-10T17:21:11.814Z,40.15
2018-07-10T17:23:40.962Z,40.75
2018-07-10T17:26:09.633Z,41.19
2018-07-10T17:28:39.130Z,41.53
2018-07-10T17:31:07.742Z,41.68
2018-07-10T17:33:38.434Z,40.41
2018-07-10T17:36:08.045Z,42.13
2018-07-10T17:38:36.692Z,41.11
2018-07-10T17:41:07.176Z,42.77
2018-07-10T17:43:37.243Z,43.03
2018-07-10T17:46:06.248Z,43.19
2018-07-10T17:48:35.636Z,42.01
2018-07-10T17:51:04.313Z,43.45
2018-07-10T17:53:32.938Z,41.97
2018-07-10T17:56:01.590Z,43.55
2018-07-10T17:58:30.225Z,44.30
2018-07-10T18:00:58.896Z,44.63
2018-07-10T18:03:27.511Z,43.22
2018-07-10T18:05:56.172Z,44.96
2018-07-10T18:08:24.859Z,44.07
2018-07-10T18:10:53.540Z,45.90
2018-07-10T18:13:22.156Z,46.40
2018-07-10T18:15:50.823Z,46.27
2018-07-10T18:18:19.450Z,46.41
2018-07-10T18:20:50.181Z,47.09
2018-07-10T18:23:19.147Z,47.72
2018-07-10T18:25:48.808Z,47.81
2018-07-10T18:28:17.898Z,48.12
2018-07-10T18:30:48.322Z,46.86
2018-07-10T18:33:18.961Z,48.34
2018-07-10T18:35:48.782Z,48.22
2018-07-10T18:38:18.243Z,47.33
2018-07-10T18:40:47.252Z,48.88
2018-07-10T18:43:18.030Z,49.56
2018-07-10T18:45:46.930Z,49.58
2018-07-10T18:48:21.198Z,50.24
2018-07-10T18:50:51.067Z,50.23
2018-07-10T18:53:21.559Z,51.26
2018-07-10T18:55:51.740Z,51.25
2018-07-10T18:58:21.274Z,49.73
2018-07-10T19:00:50.594Z,51.45
2018-07-10T19:03:20.286Z,51.92
2018-07-10T19:05:51.335Z,52.22
2018-07-10T19:08:20.429Z,52.24
2018-07-10T19:10:49.368Z,52.03
2018-07-10T19:13:20.494Z,52.48
2018-07-10T19:15:47.250Z,52.39
2018-07-10T19:18:16.170Z,52.68
2018-07-10T19:20:45.448Z,53.36
2018-07-10T19:23:14.370Z,53.52
2018-07-10T19:25:43.660Z,53.78
2018-07-10T19:28:12.526Z,54.00
2018-07-10T19:30:41.972Z,54.05
2018-07-10T19:33:10.844Z,55.15
2018-07-10T19:35:41.468Z,54.92
2018-07-10T19:38:08.993Z,55.24
2018-07-10T19:40:37.869Z,55.82
2018-07-10T19:43:06.908Z,55.82
2018-07-10T19:45:35.880Z,55.81
2018-07-10T19:48:04.809Z,56.09
2018-07-10T19:50:33.902Z,56.02
2018-07-10T19:53:05.156Z,56.59
2018-07-10T19:55:34.469Z,56.80
2018-07-10T20:00:44.959Z,58.87
2018-07-10T20:11:53.945Z,60.84
2018-07-10T20:25:58.212Z,62.57
2018-07-10T20:45:29.597Z,62.15
2018-07-10T20:59:14.293Z,63.69
2018-07-10T21:18:43.455Z,64.62
2018-07-10T21:21:12.981Z,63.88
2018-07-10T21:26:41.886Z,63.56
2018-07-10T21:31:59.123Z,64.01
2018-07-10T21:34:33.433Z,64.08
2018-07-10T21:37:10.791Z,64.48
2018-07-10T21:42:30.137Z,64.02
2018-07-10T21:56:21.813Z,64.38
2018-07-10T22:10:12.761Z,64.71
2018-07-10T22:12:47.722Z,64.45
2018-07-10T22:26:29.175Z,63.86
2018-07-10T22:29:11.385Z,64.80
2018-07-10T23:19:38.690Z,65.87
2018-07-10T23:22:07.349Z,65.65
2018-07-10T23:24:36.160Z,66.09
2018-07-10T23:29:58.007Z,65.93
2018-07-10T23:55:05.944Z,64.99
2018-07-10T23:57:53.821Z,67.10
